May Valley, Colorado
Current Conditions -  °F | °C
As of 4:53 PM on Friday 21 Nov 2014 (Local Time) from KLAA Reporting Station
Clear Clear  
Wind Chill: 42°   Ceiling: Unl
Heat Index: 44°   Visibility: 10mi
Dew Point: 29°   Wind: 5mph
Humidity: 55%   Direction: 200°SSW
Pressure: 29.92"   Gusts: NA
Location:  37.885°N, 102.667°W
Report Text: KLAA 212353Z AUTO 20004KT 10SM CLR 07/M02 A2992 RMK AO2 SLP141 T00671017 10133 20067 53007
Loading
Personal Weather Stations






























Interactive Weather Map New forecast layout! Learn more

10-Day Weather Forecast

Advertisements
Track Severe Weather on mobile